createdAt,value
2019-04-30T00:01:48.471Z,3.80
2019-04-30T00:04:25.291Z,2.47
2019-04-30T00:06:55.618Z,3.10
2019-04-30T00:09:25.747Z,3.60
2019-04-30T00:11:57.976Z,2.80
2019-04-30T00:14:32.075Z,5.13
2019-04-30T00:16:56.334Z,2.67
2019-04-30T00:19:25.932Z,3.03
2019-04-30T00:22:00.154Z,2.40
2019-04-30T00:24:26.084Z,2.00
2019-04-30T00:26:55.340Z,2.23
2019-04-30T00:29:30.163Z,2.30
2019-04-30T00:31:57.662Z,2.47
2019-04-30T00:34:26.140Z,3.27
2019-04-30T00:36:55.978Z,8.20
2019-04-30T00:39:27.133Z,2.30
2019-04-30T00:41:56.743Z,6.23
2019-04-30T00:44:28.335Z,3.40
2019-04-30T00:47:00.724Z,2.57
2019-04-30T00:49:27.400Z,3.70
2019-04-30T00:51:58.121Z,2.23
2019-04-30T00:54:30.644Z,1.83
2019-04-30T00:57:03.755Z,2.07
2019-04-30T00:59:28.749Z,2.70
2019-04-30T01:02:27.621Z,1.80
2019-04-30T01:04:51.672Z,2.70
2019-04-30T01:07:20.903Z,3.73
2019-04-30T01:09:50.115Z,2.90
2019-04-30T01:12:27.569Z,2.63
2019-04-30T01:14:50.300Z,3.00
2019-04-30T01:17:19.356Z,2.80
2019-04-30T01:19:51.165Z,2.47
2019-04-30T01:22:27.745Z,2.40
2019-04-30T01:24:49.959Z,2.47
2019-04-30T01:27:19.308Z,3.13
2019-04-30T01:29:48.771Z,1.80
2019-04-30T01:32:21.008Z,3.43
2019-04-30T01:34:53.667Z,2.13
2019-04-30T01:37:24.734Z,2.27
2019-04-30T01:39:50.299Z,2.90
2019-04-30T01:42:19.352Z,3.30
2019-04-30T01:44:53.637Z,6.37
2019-04-30T01:47:21.377Z,2.20
2019-04-30T01:49:49.937Z,2.10
2019-04-30T01:52:19.348Z,2.53
2019-04-30T01:54:49.041Z,2.90
2019-04-30T01:57:32.705Z,2.20
2019-04-30T02:00:17.156Z,2.50
2019-04-30T02:02:46.981Z,2.23
2019-04-30T02:05:16.029Z,1.87
2019-04-30T02:07:46.061Z,3.73
2019-04-30T02:10:15.389Z,2.60
2019-04-30T02:13:03.523Z,2.27
2019-04-30T02:15:32.571Z,2.70
2019-04-30T02:18:01.610Z,3.70
2019-04-30T02:20:30.663Z,3.77
2019-04-30T02:22:59.699Z,2.10
2019-04-30T02:25:29.551Z,2.10
2019-04-30T02:27:59.179Z,3.93
2019-04-30T02:30:30.963Z,2.87
2019-04-30T02:33:00.496Z,3.17
2019-04-30T02:35:43.093Z,2.33
2019-04-30T02:38:16.509Z,2.00
2019-04-30T02:40:46.353Z,2.23
2019-04-30T02:43:16.173Z,2.30
2019-04-30T02:45:49.607Z,2.90
2019-04-30T02:48:19.786Z,3.20
2019-04-30T02:50:50.103Z,2.37
2019-04-30T02:54:00.543Z,6.87
2019-04-30T02:56:30.128Z,2.33
2019-04-30T02:59:00.483Z,2.17
2019-04-30T03:01:30.640Z,2.13
2019-04-30T03:03:59.974Z,2.17
2019-04-30T03:06:30.388Z,3.03
2019-04-30T03:09:01.093Z,2.30
2019-04-30T03:11:30.503Z,2.67
2019-04-30T03:13:59.614Z,2.73
2019-04-30T03:16:52.764Z,2.50
2019-04-30T03:19:40.444Z,2.60
2019-04-30T03:22:13.934Z,1.90
2019-04-30T03:24:43.194Z,2.93
2019-04-30T03:27:12.246Z,3.10
2019-04-30T03:29:41.298Z,2.20
2019-04-30T03:32:13.406Z,3.43
2019-04-30T03:34:42.403Z,1.97
2019-04-30T03:37:11.523Z,1.93
2019-04-30T03:39:40.497Z,3.70
2019-04-30T03:42:10.191Z,25.10
2019-04-30T03:44:39.984Z,48.03
2019-04-30T03:47:10.868Z,94.30
2019-04-30T03:49:40.512Z,152.70
2019-04-30T03:52:12.883Z,151.10
2019-04-30T03:54:40.970Z,151.20
2019-04-30T03:57:10.931Z,142.20
2019-04-30T03:59:40.205Z,147.27
2019-04-30T04:02:15.295Z,147.40
2019-04-30T04:05:03.451Z,128.03
2019-04-30T04:07:41.665Z,117.40
2019-04-30T04:10:26.399Z,83.60
2019-04-30T04:12:55.368Z,112.77
2019-04-30T04:15:24.396Z,91.03
2019-04-30T04:17:53.370Z,88.53
2019-04-30T04:20:22.458Z,86.33
2019-04-30T04:22:51.504Z,72.37
2019-04-30T04:25:20.692Z,67.93
2019-04-30T04:27:50.836Z,77.30
2019-04-30T04:30:20.582Z,69.43
2019-04-30T04:32:50.230Z,64.40
2019-04-30T04:35:19.925Z,60.73
2019-04-30T04:37:49.758Z,59.10
2019-04-30T04:40:20.941Z,54.03
2019-04-30T04:42:49.653Z,59.03
2019-04-30T04:45:19.849Z,68.00
2019-04-30T04:47:50.416Z,50.00
2019-04-30T04:50:20.312Z,52.60
2019-04-30T04:52:49.754Z,56.23
2019-04-30T04:55:21.749Z,41.60
2019-04-30T04:57:50.134Z,37.83
2019-04-30T05:00:19.673Z,46.23
2019-04-30T05:02:59.358Z,43.03
2019-04-30T05:05:29.899Z,47.60
2019-04-30T05:07:59.009Z,38.07
2019-04-30T05:10:29.185Z,49.23
2019-04-30T05:12:59.252Z,36.60
2019-04-30T05:15:29.497Z,37.27
2019-04-30T05:17:59.262Z,47.17
2019-04-30T05:20:29.187Z,35.37
2019-04-30T05:22:58.577Z,32.97
2019-04-30T05:25:29.459Z,38.80
2019-04-30T05:27:58.745Z,31.97
2019-04-30T05:30:29.381Z,40.20
2019-04-30T05:32:58.866Z,27.73
2019-04-30T05:35:28.389Z,32.90
2019-04-30T05:37:59.303Z,31.47
2019-04-30T05:40:28.800Z,23.83
2019-04-30T05:42:57.940Z,29.20
2019-04-30T05:45:28.927Z,32.67
2019-04-30T05:47:58.759Z,27.90
2019-04-30T05:50:29.635Z,21.80
2019-04-30T05:52:59.251Z,32.07
2019-04-30T05:55:29.433Z,21.60
2019-04-30T05:57:59.121Z,28.80
2019-04-30T06:00:30.565Z,29.13
2019-04-30T06:02:59.876Z,23.50
2019-04-30T06:05:28.889Z,21.03
2019-04-30T06:07:59.320Z,17.43
2019-04-30T06:10:35.017Z,21.60
2019-04-30T06:13:11.521Z,22.10
2019-04-30T06:15:51.192Z,18.50
2019-04-30T06:18:20.440Z,21.67
2019-04-30T06:20:49.605Z,20.80
2019-04-30T06:23:19.476Z,18.73
2019-04-30T06:25:57.269Z,18.13
2019-04-30T06:28:21.864Z,21.07
2019-04-30T06:30:51.500Z,19.83
2019-04-30T06:33:20.547Z,17.83
2019-04-30T06:35:50.166Z,18.83
2019-04-30T06:38:19.180Z,16.60
2019-04-30T06:40:48.873Z,14.90
2019-04-30T06:43:19.119Z,14.60
2019-04-30T06:45:48.877Z,17.67
2019-04-30T06:48:20.042Z,14.30
2019-04-30T06:50:49.344Z,16.67
2019-04-30T06:53:19.266Z,13.07
2019-04-30T06:55:49.223Z,10.57
2019-04-30T06:58:20.558Z,20.13
2019-04-30T07:00:49.612Z,9.10
2019-04-30T07:03:19.292Z,16.50
2019-04-30T07:05:48.846Z,13.60
2019-04-30T07:08:39.892Z,12.57
2019-04-30T07:11:22.437Z,15.50
2019-04-30T07:13:52.202Z,18.37
2019-04-30T07:16:21.656Z,12.97
2019-04-30T07:18:50.660Z,9.93
2019-04-30T07:21:19.992Z,15.73
2019-04-30T07:23:49.201Z,10.83
2019-04-30T07:26:22.750Z,14.23
2019-04-30T07:28:54.650Z,14.53
2019-04-30T07:31:19.793Z,12.67
2019-04-30T07:33:53.099Z,18.80
2019-04-30T07:36:19.692Z,14.23
2019-04-30T07:38:54.455Z,9.67
2019-04-30T07:41:19.516Z,10.90
2019-04-30T07:43:49.399Z,12.90
2019-04-30T07:46:20.042Z,9.63
2019-04-30T07:48:50.239Z,10.43
2019-04-30T07:51:21.250Z,9.90
2019-04-30T07:53:50.057Z,9.93
2019-04-30T07:56:25.824Z,12.50
2019-04-30T07:58:50.514Z,7.70
2019-04-30T08:01:19.870Z,13.93
2019-04-30T08:03:55.989Z,13.37
2019-04-30T08:06:25.176Z,10.53
2019-04-30T08:08:57.470Z,8.43
2019-04-30T08:11:26.466Z,7.20
2019-04-30T08:13:56.023Z,10.20
2019-04-30T08:16:25.336Z,13.53
2019-04-30T08:18:54.216Z,10.63
2019-04-30T08:21:23.188Z,6.30
2019-04-30T08:23:52.136Z,11.27
2019-04-30T08:26:21.104Z,15.23
2019-04-30T08:28:50.122Z,11.50
2019-04-30T08:31:19.581Z,7.80
2019-04-30T08:33:49.159Z,8.50
2019-04-30T08:36:19.653Z,14.47
2019-04-30T08:38:49.514Z,8.67
2019-04-30T08:41:19.299Z,8.20
2019-04-30T08:43:49.626Z,9.37
2019-04-30T08:46:19.181Z,10.53
2019-04-30T08:48:51.721Z,9.10
2019-04-30T08:51:19.653Z,12.03
2019-04-30T08:53:48.992Z,7.87
2019-04-30T08:56:21.715Z,6.63
2019-04-30T08:58:49.179Z,9.60
2019-04-30T09:01:19.633Z,12.50
2019-04-30T09:03:50.925Z,9.73
2019-04-30T09:06:25.324Z,7.23
2019-04-30T09:09:00.174Z,8.20
2019-04-30T09:11:35.489Z,8.00
2019-04-30T09:13:59.868Z,7.80
2019-04-30T09:16:29.479Z,5.13
2019-04-30T09:18:59.510Z,5.57
2019-04-30T09:21:30.030Z,7.83
2019-04-30T09:23:59.515Z,7.17
2019-04-30T09:26:29.115Z,8.50
2019-04-30T09:28:59.282Z,7.93
2019-04-30T09:31:29.589Z,7.87
2019-04-30T09:34:00.995Z,6.47
2019-04-30T09:36:29.715Z,7.93
2019-04-30T09:39:01.311Z,5.97
2019-04-30T09:41:29.506Z,7.00
2019-04-30T09:43:59.769Z,6.37
2019-04-30T09:46:29.959Z,7.10
2019-04-30T09:48:59.722Z,7.73
2019-04-30T09:51:30.646Z,8.33
2019-04-30T09:54:03.094Z,7.50
2019-04-30T09:56:30.553Z,7.80
2019-04-30T09:58:59.491Z,8.87
2019-04-30T10:01:28.502Z,6.50
2019-04-30T10:04:00.018Z,8.10
2019-04-30T10:06:39.406Z,6.47
2019-04-30T10:08:59.619Z,5.70
2019-04-30T10:11:45.319Z,8.43
2019-04-30T10:14:14.352Z,8.47
2019-04-30T10:16:56.410Z,8.23
2019-04-30T10:19:25.381Z,8.13
2019-04-30T10:21:54.387Z,6.23
2019-04-30T10:24:23.420Z,7.87
2019-04-30T10:26:52.432Z,7.07
2019-04-30T10:29:21.652Z,6.33
2019-04-30T10:31:50.740Z,9.00
2019-04-30T10:34:19.762Z,7.07
2019-04-30T10:36:49.466Z,5.47
2019-04-30T10:39:21.407Z,6.73
2019-04-30T10:41:49.541Z,6.73
2019-04-30T10:44:18.857Z,7.90
2019-04-30T10:46:47.972Z,6.13
2019-04-30T10:49:18.984Z,8.50
2019-04-30T10:51:47.741Z,6.90
2019-04-30T10:54:24.112Z,7.53
2019-04-30T10:56:49.025Z,6.97
2019-04-30T10:59:18.168Z,6.13
2019-04-30T11:01:49.188Z,8.30
2019-04-30T11:04:19.386Z,7.17
2019-04-30T11:06:48.401Z,7.63
2019-04-30T11:09:17.437Z,5.37
2019-04-30T11:11:46.404Z,6.17
2019-04-30T11:14:15.460Z,7.77
2019-04-30T11:16:44.598Z,6.73
2019-04-30T11:19:13.867Z,9.10
2019-04-30T11:21:43.089Z,7.20
2019-04-30T11:24:12.360Z,5.97
2019-04-30T11:26:42.367Z,8.17
2019-04-30T11:29:12.171Z,6.30
2019-04-30T11:31:47.691Z,6.80
2019-04-30T11:34:16.768Z,4.63
2019-04-30T11:36:45.720Z,6.90
2019-04-30T11:39:18.645Z,9.00
2019-04-30T11:41:47.880Z,5.87
2019-04-30T11:44:28.499Z,5.93
2019-04-30T11:47:19.429Z,5.47
2019-04-30T11:49:48.589Z,6.80
2019-04-30T11:52:17.620Z,6.50
2019-04-30T11:54:51.367Z,5.23
2019-04-30T11:57:18.725Z,8.07
2019-04-30T11:59:47.912Z,5.90
2019-04-30T12:02:40.513Z,11.00
2019-04-30T12:05:10.668Z,7.10
2019-04-30T12:07:48.322Z,6.40
2019-04-30T12:10:23.589Z,8.30
2019-04-30T12:12:52.615Z,6.10
2019-04-30T12:15:21.633Z,4.97
2019-04-30T12:17:50.675Z,4.73
2019-04-30T12:20:19.757Z,5.60
2019-04-30T12:22:49.342Z,4.67
2019-04-30T12:25:18.733Z,7.30
2019-04-30T12:27:48.882Z,6.30
2019-04-30T12:30:21.071Z,6.00
2019-04-30T12:32:50.087Z,6.77
2019-04-30T12:35:19.704Z,6.23
2019-04-30T12:37:50.827Z,7.97
2019-04-30T12:40:29.052Z,5.70
2019-04-30T12:42:50.260Z,6.43
2019-04-30T12:45:19.499Z,5.20
2019-04-30T12:47:53.387Z,7.43
2019-04-30T12:50:41.423Z,6.50
2019-04-30T12:53:15.889Z,6.33
2019-04-30T12:55:52.694Z,4.80
2019-04-30T12:58:21.725Z,5.97
2019-04-30T13:00:50.825Z,6.13
2019-04-30T13:03:19.856Z,6.23
2019-04-30T13:05:50.645Z,6.87
2019-04-30T13:08:21.264Z,7.83
2019-04-30T13:10:50.996Z,5.97
2019-04-30T13:13:20.970Z,7.43
2019-04-30T13:15:50.301Z,6.33
2019-04-30T13:18:19.523Z,5.33
2019-04-30T13:20:49.029Z,6.07
2019-04-30T13:23:18.630Z,7.47
2019-04-30T13:25:51.228Z,5.23
2019-04-30T13:28:20.965Z,5.73
2019-04-30T13:30:49.996Z,6.70
2019-04-30T13:33:34.136Z,5.10
2019-04-30T13:36:03.160Z,5.03
2019-04-30T13:38:49.049Z,6.10
2019-04-30T13:41:22.986Z,5.37
2019-04-30T13:44:05.496Z,4.80
2019-04-30T13:46:34.520Z,5.80
2019-04-30T13:49:03.551Z,4.93
2019-04-30T13:51:32.636Z,5.00
2019-04-30T13:54:01.672Z,4.60
2019-04-30T13:56:30.716Z,6.63
2019-04-30T13:58:59.670Z,4.50
2019-04-30T14:01:29.414Z,4.90
2019-04-30T14:04:14.469Z,4.93
2019-04-30T14:07:02.536Z,4.23
2019-04-30T14:09:32.594Z,4.90
2019-04-30T14:12:01.609Z,5.03
2019-04-30T14:14:30.653Z,5.70
2019-04-30T14:17:01.213Z,4.87
2019-04-30T14:19:30.449Z,5.63
2019-04-30T14:21:59.474Z,5.53
2019-04-30T14:24:28.579Z,5.70
2019-04-30T14:26:59.051Z,4.40
2019-04-30T14:29:30.125Z,4.73
2019-04-30T14:31:59.064Z,6.57
2019-04-30T14:34:28.716Z,5.10
2019-04-30T14:36:59.382Z,5.33
2019-04-30T14:39:29.199Z,5.20
2019-04-30T14:42:00.152Z,6.03
2019-04-30T14:44:31.781Z,6.20
2019-04-30T14:47:20.870Z,4.47
2019-04-30T14:50:10.273Z,5.93
2019-04-30T14:52:46.579Z,5.07
2019-04-30T14:55:43.628Z,4.67
2019-04-30T14:58:24.397Z,5.50
2019-04-30T15:01:19.374Z,5.53
2019-04-30T15:03:49.511Z,4.70
2019-04-30T15:06:19.370Z,4.97
2019-04-30T15:08:49.475Z,5.00
2019-04-30T15:11:19.070Z,4.40
2019-04-30T15:13:49.417Z,5.83
2019-04-30T15:16:18.724Z,6.10
2019-04-30T15:18:47.676Z,4.53
2019-04-30T15:21:16.574Z,5.60
2019-04-30T15:24:01.394Z,6.00
2019-04-30T15:26:29.080Z,4.47
2019-04-30T15:29:00.018Z,4.57
2019-04-30T15:31:29.711Z,5.17
2019-04-30T15:34:11.094Z,4.73
2019-04-30T15:36:40.360Z,4.80
2019-04-30T15:39:22.290Z,4.37
2019-04-30T15:41:51.339Z,5.60
2019-04-30T15:44:20.417Z,6.43
2019-04-30T15:46:49.537Z,4.40
2019-04-30T15:49:18.624Z,3.97
2019-04-30T15:51:47.673Z,6.03
2019-04-30T15:54:16.684Z,5.80
2019-04-30T15:56:45.822Z,4.30
2019-04-30T15:59:32.512Z,5.53
2019-04-30T16:02:05.969Z,4.40
2019-04-30T16:04:52.790Z,11.63
2019-04-30T16:07:21.753Z,3.90
2019-04-30T16:10:08.907Z,5.77
2019-04-30T16:12:58.934Z,4.50
2019-04-30T16:15:29.788Z,4.13
2019-04-30T16:18:00.167Z,5.33
2019-04-30T16:20:30.119Z,4.50
2019-04-30T16:22:59.220Z,4.33
2019-04-30T16:25:30.214Z,5.07
2019-04-30T16:27:59.024Z,4.53
2019-04-30T16:30:28.933Z,4.57
2019-04-30T16:32:59.652Z,4.20
2019-04-30T16:35:29.530Z,4.60
2019-04-30T16:37:59.398Z,5.00
2019-04-30T16:40:29.085Z,4.60
2019-04-30T16:42:58.279Z,4.30
2019-04-30T16:45:28.974Z,4.27
2019-04-30T16:47:57.943Z,5.13
2019-04-30T16:50:26.954Z,4.40
2019-04-30T16:52:55.989Z,4.83
2019-04-30T16:55:25.061Z,4.97
2019-04-30T16:57:54.107Z,8.83
2019-04-30T17:00:23.705Z,4.13
2019-04-30T17:02:58.258Z,5.70
2019-04-30T17:05:35.852Z,4.43
2019-04-30T17:08:20.643Z,4.57
2019-04-30T17:10:55.187Z,4.50
2019-04-30T17:13:39.240Z,5.00
2019-04-30T17:16:11.360Z,5.20
2019-04-30T17:18:41.714Z,4.53
2019-04-30T17:21:11.125Z,5.07
2019-04-30T17:23:40.168Z,4.40
2019-04-30T17:26:09.205Z,5.20
2019-04-30T17:28:38.645Z,4.93
2019-04-30T17:31:09.647Z,7.70
2019-04-30T17:33:38.455Z,4.67
2019-04-30T17:36:08.379Z,4.23
2019-04-30T17:38:38.248Z,4.57
2019-04-30T17:41:07.346Z,4.97
2019-04-30T17:43:36.378Z,4.40
2019-04-30T17:46:05.594Z,6.33
2019-04-30T17:48:34.617Z,6.30
2019-04-30T17:51:03.583Z,4.40
2019-04-30T17:53:33.581Z,7.73
2019-04-30T17:56:02.624Z,6.13
2019-04-30T17:58:31.683Z,5.33
2019-04-30T18:01:02.221Z,10.07
2019-04-30T18:03:31.341Z,11.10
2019-04-30T18:06:00.365Z,5.90
2019-04-30T18:08:29.426Z,4.97
2019-04-30T18:10:58.508Z,6.60
2019-04-30T18:13:27.528Z,7.80
2019-04-30T18:15:56.527Z,6.87
2019-04-30T18:18:51.222Z,4.67
2019-04-30T18:21:30.656Z,4.50
2019-04-30T18:24:19.427Z,5.93
2019-04-30T18:26:53.718Z,9.30
2019-04-30T18:29:22.663Z,7.10
2019-04-30T18:31:51.680Z,8.20
2019-04-30T18:34:20.713Z,6.93
2019-04-30T18:36:51.199Z,4.27
2019-04-30T18:39:20.342Z,7.23
2019-04-30T18:41:49.324Z,7.53
2019-04-30T18:44:19.535Z,7.60
2019-04-30T18:46:49.131Z,6.47
2019-04-30T18:49:18.755Z,5.07
2019-04-30T18:51:49.270Z,4.37
2019-04-30T18:54:20.812Z,4.10
2019-04-30T18:56:49.217Z,5.57
2019-04-30T18:59:19.609Z,6.50
2019-04-30T19:01:48.832Z,9.53
2019-04-30T19:04:18.926Z,4.77
2019-04-30T19:06:48.345Z,6.73
2019-04-30T19:09:33.340Z,7.87
2019-04-30T19:12:19.272Z,5.93
2019-04-30T19:15:09.816Z,4.20
2019-04-30T19:17:57.748Z,4.60
2019-04-30T19:20:35.176Z,5.80
2019-04-30T19:23:04.284Z,7.73
2019-04-30T19:25:33.338Z,6.50
2019-04-30T19:28:11.398Z,8.30
2019-04-30T19:30:33.198Z,14.80
2019-04-30T19:33:02.210Z,5.03
2019-04-30T19:35:31.274Z,10.80
2019-04-30T19:38:00.369Z,6.43
2019-04-30T19:40:29.417Z,4.70
2019-04-30T19:42:58.449Z,6.50
2019-04-30T19:45:27.503Z,5.60
2019-04-30T19:47:58.607Z,4.40
2019-04-30T19:50:27.230Z,5.17
2019-04-30T19:52:56.257Z,4.47
2019-04-30T19:55:25.294Z,3.60
2019-04-30T19:57:54.360Z,5.23
2019-04-30T20:00:23.499Z,4.93
2019-04-30T20:02:52.515Z,4.93
2019-04-30T20:05:21.460Z,5.60
2019-04-30T20:07:50.508Z,5.40
2019-04-30T20:10:19.722Z,4.73
2019-04-30T20:12:49.709Z,4.57
2019-04-30T20:15:22.173Z,4.20
2019-04-30T20:17:49.964Z,6.80
2019-04-30T20:20:19.069Z,5.20
2019-04-30T20:22:48.080Z,5.40
2019-04-30T20:25:18.952Z,5.50
2019-04-30T20:27:49.569Z,4.87
2019-04-30T20:30:19.548Z,7.43
2019-04-30T20:32:49.057Z,4.83
2019-04-30T20:35:19.545Z,5.33
2019-04-30T20:38:06.663Z,4.53
2019-04-30T20:40:43.375Z,5.07
2019-04-30T20:43:08.579Z,4.37
2019-04-30T20:45:37.668Z,5.00
2019-04-30T20:48:08.859Z,5.70
2019-04-30T20:50:37.447Z,5.67
2019-04-30T20:53:08.616Z,4.90
2019-04-30T20:55:38.827Z,5.13
2019-04-30T20:58:09.451Z,4.60
2019-04-30T21:00:38.719Z,5.50
2019-04-30T21:03:09.566Z,4.70
2019-04-30T21:05:38.595Z,6.90
2019-04-30T21:08:07.724Z,4.60
2019-04-30T21:10:36.748Z,5.73
2019-04-30T21:13:05.772Z,7.70
2019-04-30T21:15:34.801Z,4.73
2019-04-30T21:18:04.470Z,5.63
2019-04-30T21:20:34.137Z,5.30
2019-04-30T21:23:03.247Z,8.03
2019-04-30T21:25:32.212Z,6.40
2019-04-30T21:28:01.273Z,6.27
2019-04-30T21:30:31.105Z,5.57
2019-04-30T21:33:31.815Z,10.13
2019-04-30T21:36:14.511Z,4.40
2019-04-30T21:38:43.584Z,4.90
2019-04-30T21:41:13.201Z,11.40
2019-04-30T21:43:42.321Z,8.20
2019-04-30T21:46:11.341Z,6.33
2019-04-30T21:48:40.460Z,7.70
2019-04-30T21:51:09.610Z,6.70
2019-04-30T21:53:39.591Z,4.37
2019-04-30T21:56:08.931Z,5.67
2019-04-30T21:58:39.263Z,5.90
2019-04-30T22:01:40.437Z,6.10
2019-04-30T22:04:10.224Z,6.50
2019-04-30T22:06:39.828Z,7.20
2019-04-30T22:09:10.215Z,6.20
2019-04-30T22:11:40.037Z,4.70
2019-04-30T22:14:09.830Z,5.80
2019-04-30T22:16:39.883Z,6.33
2019-04-30T22:19:09.438Z,6.30
2019-04-30T22:21:39.661Z,6.77
2019-04-30T22:24:08.825Z,6.87
2019-04-30T22:26:37.913Z,5.60
2019-04-30T22:29:06.936Z,5.40
2019-04-30T22:31:35.960Z,5.73
2019-04-30T22:34:05.000Z,6.13
2019-04-30T22:36:38.863Z,5.00
2019-04-30T22:39:36.576Z,6.67
2019-04-30T22:42:35.456Z,6.17
2019-04-30T22:45:08.748Z,5.00
2019-04-30T22:47:37.760Z,4.73
2019-04-30T22:50:08.289Z,6.43
2019-04-30T22:52:37.314Z,5.87
2019-04-30T22:55:06.745Z,6.00
2019-04-30T22:57:36.675Z,6.30
2019-04-30T23:00:09.751Z,5.90
2019-04-30T23:02:45.251Z,6.00
2019-04-30T23:05:16.168Z,5.53
2019-04-30T23:07:45.178Z,5.70
2019-04-30T23:10:15.780Z,5.93
2019-04-30T23:12:44.865Z,5.40
2019-04-30T23:15:15.553Z,5.43
2019-04-30T23:17:44.580Z,5.77
2019-04-30T23:20:13.659Z,6.37
2019-04-30T23:22:42.536Z,6.27
2019-04-30T23:25:11.735Z,5.97
2019-04-30T23:27:40.688Z,6.10
2019-04-30T23:30:10.195Z,5.43
2019-04-30T23:32:39.143Z,7.13
2019-04-30T23:35:08.124Z,4.93
2019-04-30T23:37:37.019Z,5.20
2019-04-30T23:40:23.708Z,5.53
2019-04-30T23:42:53.020Z,6.53
2019-04-30T23:45:22.088Z,6.00
2019-04-30T23:47:51.107Z,6.20
2019-04-30T23:50:20.356Z,8.07
2019-04-30T23:52:49.991Z,6.60
2019-04-30T23:55:19.000Z,6.10
2019-04-30T23:57:48.185Z,5.37
